createdAt,value
2018-04-26T00:00:37.414Z,9.17
2018-04-26T00:01:37.396Z,9.13
2018-04-26T00:02:37.381Z,9.17
2018-04-26T00:03:37.360Z,9.13
2018-04-26T00:04:37.340Z,9.11
2018-04-26T00:05:37.326Z,9.14
2018-04-26T00:06:37.305Z,9.14
2018-04-26T00:07:37.287Z,9.14
2018-04-26T00:08:37.269Z,9.21
2018-04-26T00:09:37.250Z,9.11
2018-04-26T00:10:37.232Z,9.21
2018-04-26T00:11:37.217Z,9.18
2018-04-26T00:12:37.196Z,9.21
2018-04-26T00:13:37.178Z,9.23
2018-04-26T00:14:37.163Z,9.26
2018-04-26T00:15:37.147Z,9.29
2018-04-26T00:16:37.125Z,9.20
2018-04-26T00:17:37.107Z,9.23
2018-04-26T00:18:37.090Z,9.21
2018-04-26T00:19:37.071Z,9.26
2018-04-26T00:20:37.077Z,9.20
2018-04-26T00:21:37.035Z,9.20
2018-04-26T00:22:37.018Z,9.18
2018-04-26T00:23:36.997Z,9.21
2018-04-26T00:24:36.982Z,9.13
2018-04-26T00:25:36.962Z,9.15
2018-04-26T00:26:36.945Z,9.13
2018-04-26T00:27:36.924Z,9.18
2018-04-26T00:28:36.912Z,9.18
2018-04-26T00:29:36.889Z,9.13
2018-04-26T00:30:36.875Z,9.14
2018-04-26T00:31:36.861Z,9.20
2018-04-26T00:32:36.835Z,9.11
2018-04-26T00:33:36.822Z,9.13
2018-04-26T00:34:36.873Z,9.11
2018-04-26T00:35:36.790Z,9.02
2018-04-26T00:36:36.767Z,9.05
2018-04-26T00:37:36.746Z,8.95
2018-04-26T00:38:36.730Z,8.92
2018-04-26T00:39:36.709Z,8.87
2018-04-26T00:40:36.699Z,8.91
2018-04-26T00:41:36.674Z,8.86
2018-04-26T00:42:36.655Z,8.79
2018-04-26T00:43:36.635Z,8.83
2018-04-26T00:44:36.619Z,8.81
2018-04-26T00:45:36.601Z,8.89
2018-04-26T00:46:36.587Z,8.89
2018-04-26T00:47:36.565Z,8.86
2018-04-26T00:48:36.545Z,8.83
2018-04-26T00:49:36.528Z,8.80
2018-04-26T00:50:36.511Z,8.89
2018-04-26T00:51:36.492Z,8.83
2018-04-26T00:52:36.475Z,8.74
2018-04-26T00:53:36.459Z,8.79
2018-04-26T00:54:36.438Z,8.73
2018-04-26T00:55:36.417Z,8.76
2018-04-26T00:56:36.399Z,8.79
2018-04-26T00:57:36.383Z,8.76
2018-04-26T00:58:36.364Z,8.70
2018-04-26T00:59:36.346Z,8.68
2018-04-26T01:00:36.324Z,8.68
2018-04-26T01:01:36.310Z,8.66
2018-04-26T01:02:36.290Z,8.70
2018-04-26T01:03:36.272Z,8.66
2018-04-26T01:04:36.253Z,8.70
2018-04-26T01:05:36.236Z,8.48
2018-04-26T01:06:36.218Z,8.56
2018-04-26T01:07:36.198Z,8.65
2018-04-26T01:08:36.185Z,8.62
2018-04-26T01:09:36.162Z,8.55
2018-04-26T01:10:36.145Z,8.53
2018-04-26T01:11:36.123Z,8.59
2018-04-26T01:12:36.109Z,8.53
2018-04-26T01:13:36.088Z,8.53
2018-04-26T01:14:36.067Z,8.52
2018-04-26T01:15:36.049Z,8.48
2018-04-26T01:16:36.030Z,8.47
2018-04-26T01:17:36.012Z,8.50
2018-04-26T01:18:35.995Z,8.43
2018-04-26T01:19:35.978Z,8.48
2018-04-26T01:20:35.960Z,8.48
2018-04-26T01:21:35.938Z,8.48
2018-04-26T01:22:35.919Z,8.38
2018-04-26T01:23:35.902Z,8.45
2018-04-26T01:24:35.881Z,8.40
2018-04-26T01:25:35.864Z,8.36
2018-04-26T01:26:35.845Z,8.43
2018-04-26T01:27:35.829Z,8.37
2018-04-26T01:28:35.812Z,8.37
2018-04-26T01:29:35.794Z,8.33
2018-04-26T01:30:35.771Z,8.36
2018-04-26T01:31:35.752Z,8.37
2018-04-26T01:32:35.733Z,8.23
2018-04-26T01:33:35.715Z,8.37
2018-04-26T01:34:35.696Z,8.22
2018-04-26T01:35:35.676Z,8.25
2018-04-26T01:36:35.661Z,8.30
2018-04-26T01:37:35.649Z,8.28
2018-04-26T01:38:35.631Z,8.26
2018-04-26T01:39:35.602Z,8.26
2018-04-26T01:40:35.586Z,8.29
2018-04-26T01:41:35.568Z,8.23
2018-04-26T01:42:35.547Z,8.29
2018-04-26T01:43:35.528Z,8.23
2018-04-26T01:44:35.508Z,8.20
2018-04-26T01:45:35.491Z,8.26
2018-04-26T01:46:35.474Z,8.19
2018-04-26T01:47:35.454Z,8.19
2018-04-26T01:48:35.434Z,8.28
2018-04-26T01:49:35.419Z,8.26
2018-04-26T01:50:35.400Z,8.25
2018-04-26T01:51:35.378Z,8.23
2018-04-26T01:52:35.361Z,8.18
2018-04-26T01:53:35.343Z,8.23
2018-04-26T01:54:35.324Z,8.15
2018-04-26T01:55:35.302Z,8.11
2018-04-26T01:56:35.283Z,8.12
2018-04-26T01:57:35.265Z,8.12
2018-04-26T01:58:35.247Z,8.05
2018-04-26T01:59:35.226Z,8.11
2018-04-26T02:00:35.209Z,8.08
2018-04-26T02:01:35.193Z,7.97
2018-04-26T02:02:35.171Z,8.02
2018-04-26T02:03:35.152Z,7.97
2018-04-26T02:04:35.133Z,7.98
2018-04-26T02:05:35.113Z,8.01
2018-04-26T02:06:35.097Z,8.00
2018-04-26T02:07:35.076Z,7.98
2018-04-26T02:08:35.058Z,8.00
2018-04-26T02:09:35.048Z,8.01
2018-04-26T02:10:35.024Z,8.00
2018-04-26T02:11:35.001Z,7.98
2018-04-26T02:12:34.985Z,7.86
2018-04-26T02:13:34.961Z,7.85
2018-04-26T02:14:34.945Z,7.86
2018-04-26T02:15:34.933Z,7.87
2018-04-26T02:16:34.905Z,7.93
2018-04-26T02:17:34.886Z,7.87
2018-04-26T02:18:34.868Z,7.92
2018-04-26T02:19:34.848Z,7.83
2018-04-26T02:20:34.831Z,7.85
2018-04-26T02:21:34.814Z,7.83
2018-04-26T02:22:34.791Z,7.85
2018-04-26T02:23:34.772Z,7.85
2018-04-26T02:24:34.756Z,7.79
2018-04-26T02:25:34.734Z,7.82
2018-04-26T02:26:34.716Z,7.82
2018-04-26T02:27:34.695Z,7.85
2018-04-26T02:28:34.677Z,7.77
2018-04-26T02:29:34.660Z,7.82
2018-04-26T02:30:34.642Z,7.79
2018-04-26T02:31:34.627Z,7.77
2018-04-26T02:32:34.602Z,7.75
2018-04-26T02:33:34.583Z,7.69
2018-04-26T02:34:34.563Z,7.72
2018-04-26T02:35:34.543Z,7.68
2018-04-26T02:36:34.524Z,7.69
2018-04-26T02:37:34.504Z,7.64
2018-04-26T02:38:34.486Z,7.63
2018-04-26T02:39:34.466Z,7.68
2018-04-26T02:40:34.447Z,7.71
2018-04-26T02:41:34.434Z,7.55
2018-04-26T02:42:34.415Z,7.61
2018-04-26T02:43:34.394Z,7.50
2018-04-26T02:44:34.371Z,7.57
2018-04-26T02:45:34.361Z,7.53
2018-04-26T02:46:34.334Z,7.49
2018-04-26T02:47:34.315Z,7.57
2018-04-26T02:48:34.303Z,7.60
2018-04-26T02:49:34.276Z,7.49
2018-04-26T02:50:34.257Z,7.60
2018-04-26T02:51:34.239Z,7.55
2018-04-26T02:52:34.222Z,7.55
2018-04-26T02:53:34.200Z,7.49
2018-04-26T02:54:34.181Z,7.46
2018-04-26T02:55:34.162Z,7.48
2018-04-26T02:56:34.147Z,7.52
2018-04-26T02:57:34.129Z,7.53
2018-04-26T02:58:34.113Z,7.52
2018-04-26T02:59:34.085Z,7.49
2018-04-26T03:00:34.066Z,7.46
2018-04-26T03:01:34.046Z,7.50
2018-04-26T03:02:34.027Z,7.55
2018-04-26T03:03:34.009Z,7.49
2018-04-26T03:04:34.062Z,7.52
2018-04-26T03:05:33.968Z,7.42
2018-04-26T03:06:33.952Z,7.43
2018-04-26T03:07:33.931Z,7.42
2018-04-26T03:08:33.912Z,7.40
2018-04-26T03:09:33.893Z,7.48
2018-04-26T03:10:33.875Z,7.57
2018-04-26T03:11:33.854Z,7.49
2018-04-26T03:12:33.841Z,7.49
2018-04-26T03:13:33.819Z,7.52
2018-04-26T03:14:33.801Z,7.46
2018-04-26T03:15:33.777Z,7.55
2018-04-26T03:16:33.763Z,7.60
2018-04-26T03:17:33.741Z,7.61
2018-04-26T03:18:33.720Z,7.63
2018-04-26T03:19:33.712Z,7.60
2018-04-26T03:20:33.683Z,7.58
2018-04-26T03:21:33.670Z,7.60
2018-04-26T03:22:33.642Z,7.64
2018-04-26T03:23:33.637Z,7.69
2018-04-26T03:24:33.609Z,7.77
2018-04-26T03:25:33.587Z,7.74
2018-04-26T03:26:33.568Z,7.74
2018-04-26T03:27:33.552Z,7.74
2018-04-26T03:28:33.526Z,7.80
2018-04-26T03:29:33.511Z,7.86
2018-04-26T03:30:33.494Z,7.82
2018-04-26T03:31:33.469Z,7.83
2018-04-26T03:32:33.450Z,7.85
2018-04-26T03:33:33.433Z,7.82
2018-04-26T03:34:33.414Z,7.82
2018-04-26T03:35:33.396Z,7.74
2018-04-26T03:36:33.377Z,7.67
2018-04-26T03:37:33.356Z,7.74
2018-04-26T03:38:33.342Z,7.71
2018-04-26T03:39:33.318Z,7.68
2018-04-26T03:40:33.299Z,7.55
2018-04-26T03:41:33.281Z,7.55
2018-04-26T03:42:33.262Z,7.57
2018-04-26T03:43:33.244Z,7.52
2018-04-26T03:44:33.222Z,7.67
2018-04-26T03:45:33.204Z,7.68
2018-04-26T03:46:33.185Z,7.58
2018-04-26T03:47:33.170Z,7.55
2018-04-26T03:48:33.147Z,7.57
2018-04-26T03:49:33.130Z,7.55
2018-04-26T03:50:33.108Z,7.46
2018-04-26T03:51:33.090Z,7.50
2018-04-26T03:52:33.070Z,7.50
2018-04-26T03:53:33.054Z,7.55
2018-04-26T03:54:33.033Z,7.52
2018-04-26T03:55:33.015Z,7.53
2018-04-26T03:56:32.993Z,7.48
2018-04-26T03:57:32.974Z,7.48
2018-04-26T03:58:32.962Z,7.55
2018-04-26T03:59:32.937Z,7.49
2018-04-26T04:00:32.917Z,7.52
2018-04-26T04:01:32.926Z,7.49
2018-04-26T04:02:32.882Z,7.43
2018-04-26T04:03:32.860Z,7.48
2018-04-26T04:04:32.841Z,7.58
2018-04-26T04:05:32.820Z,7.50
2018-04-26T04:06:32.802Z,7.48
2018-04-26T04:07:32.784Z,7.55
2018-04-26T04:08:32.764Z,7.53
2018-04-26T04:09:32.745Z,7.49
2018-04-26T04:10:32.726Z,7.50
2018-04-26T04:11:32.707Z,7.43
2018-04-26T04:12:32.698Z,7.43
2018-04-26T04:13:32.668Z,7.39
2018-04-26T04:14:32.649Z,7.49
2018-04-26T04:15:32.630Z,7.50
2018-04-26T04:16:32.610Z,7.50
2018-04-26T04:17:32.593Z,7.40
2018-04-26T04:18:32.573Z,7.35
2018-04-26T04:19:32.551Z,7.46
2018-04-26T04:20:32.538Z,7.45
2018-04-26T04:21:32.517Z,7.50
2018-04-26T04:22:32.494Z,7.46
2018-04-26T04:23:32.473Z,7.57
2018-04-26T04:24:32.456Z,7.50
2018-04-26T04:25:32.440Z,7.50
2018-04-26T04:26:32.421Z,7.49
2018-04-26T04:27:32.399Z,7.57
2018-04-26T04:28:32.380Z,7.53
2018-04-26T04:29:32.363Z,7.42
2018-04-26T04:30:32.343Z,7.49
2018-04-26T04:31:32.321Z,7.49
2018-04-26T04:32:32.303Z,7.52
2018-04-26T04:33:32.282Z,7.52
2018-04-26T04:34:32.267Z,7.48
2018-04-26T04:35:32.247Z,7.49
2018-04-26T04:36:32.230Z,7.57
2018-04-26T04:37:32.208Z,7.53
2018-04-26T04:38:32.189Z,7.64
2018-04-26T04:39:32.170Z,7.69
2018-04-26T04:40:32.154Z,7.71
2018-04-26T04:41:32.130Z,7.82
2018-04-26T04:42:32.111Z,7.77
2018-04-26T04:43:32.098Z,7.85
2018-04-26T04:44:32.073Z,7.83
2018-04-26T04:45:32.055Z,8.02
2018-04-26T04:46:32.039Z,7.98
2018-04-26T04:47:32.015Z,8.12
2018-04-26T04:48:32.001Z,8.12
2018-04-26T04:49:31.978Z,8.22
2018-04-26T04:50:31.969Z,8.30
2018-04-26T04:51:31.943Z,8.19
2018-04-26T04:52:31.929Z,8.26
2018-04-26T04:53:31.903Z,8.30
2018-04-26T04:54:31.884Z,8.37
2018-04-26T04:55:31.864Z,8.44
2018-04-26T04:56:31.852Z,8.45
2018-04-26T04:57:31.827Z,8.36
2018-04-26T04:58:31.809Z,8.50
2018-04-26T04:59:31.789Z,8.52
2018-04-26T05:00:31.773Z,8.58
2018-04-26T05:01:31.752Z,8.65
2018-04-26T05:02:31.734Z,8.56
2018-04-26T05:03:31.715Z,8.65
2018-04-26T05:04:31.697Z,8.65
2018-04-26T05:05:31.678Z,8.62
2018-04-26T05:06:31.658Z,8.70
2018-04-26T05:07:31.640Z,8.73
2018-04-26T05:08:31.672Z,8.74
2018-04-26T05:09:31.603Z,8.83
2018-04-26T05:10:31.589Z,8.79
2018-04-26T05:11:31.565Z,8.87
2018-04-26T05:12:31.549Z,8.94
2018-04-26T05:13:31.534Z,8.94
2018-04-26T05:14:31.515Z,8.99
2018-04-26T05:15:31.491Z,9.10
2018-04-26T05:16:31.476Z,9.14
2018-04-26T05:17:31.455Z,9.14
2018-04-26T05:18:31.438Z,9.15
2018-04-26T05:19:31.418Z,9.20
2018-04-26T05:20:31.401Z,9.20
2018-04-26T05:21:31.381Z,9.23
2018-04-26T05:22:31.367Z,9.21
2018-04-26T05:23:31.351Z,9.18
2018-04-26T05:24:31.327Z,9.23
2018-04-26T05:25:31.309Z,9.38
2018-04-26T05:26:31.295Z,9.38
2018-04-26T05:27:31.271Z,9.40
2018-04-26T05:28:31.253Z,9.39
2018-04-26T05:29:31.233Z,9.40
2018-04-26T05:30:31.223Z,9.50
2018-04-26T05:31:31.201Z,9.50
2018-04-26T05:32:31.181Z,9.50
2018-04-26T05:33:31.161Z,9.53
2018-04-26T05:34:31.149Z,9.60
2018-04-26T05:35:31.187Z,9.69
2018-04-26T05:36:31.107Z,9.71
2018-04-26T05:37:31.098Z,9.69
2018-04-26T05:38:31.072Z,9.68
2018-04-26T05:39:31.063Z,9.66
2018-04-26T05:40:31.038Z,9.75
2018-04-26T05:41:31.020Z,9.76
2018-04-26T05:42:31.000Z,9.76
2018-04-26T05:43:30.988Z,9.75
2018-04-26T05:44:30.965Z,9.75
2018-04-26T05:45:30.947Z,9.72
2018-04-26T05:46:30.930Z,9.81
2018-04-26T05:47:30.910Z,9.81
2018-04-26T05:48:30.897Z,9.86
2018-04-26T05:49:30.875Z,9.86
2018-04-26T05:50:30.862Z,9.87
2018-04-26T05:51:30.845Z,9.76
2018-04-26T05:52:30.828Z,9.79
2018-04-26T05:53:30.803Z,9.89
2018-04-26T05:54:30.788Z,9.81
2018-04-26T05:55:30.769Z,9.79
2018-04-26T05:56:30.754Z,9.79
2018-04-26T05:57:30.732Z,9.84
2018-04-26T05:58:30.722Z,9.78
2018-04-26T05:59:30.705Z,9.83
2018-04-26T06:00:30.680Z,9.78
2018-04-26T06:01:30.663Z,9.83
2018-04-26T06:02:30.646Z,9.90
2018-04-26T06:03:30.689Z,9.91
2018-04-26T06:04:30.613Z,10.02
2018-04-26T06:05:30.604Z,10.05
2018-04-26T06:06:30.579Z,10.01
2018-04-26T06:07:30.555Z,10.07
2018-04-26T06:08:30.537Z,9.96
2018-04-26T06:09:30.529Z,10.08
2018-04-26T06:10:30.511Z,10.12
2018-04-26T06:11:30.487Z,10.14
2018-04-26T06:12:30.467Z,10.17
2018-04-26T06:13:30.451Z,10.22
2018-04-26T06:14:30.435Z,10.27
2018-04-26T06:15:30.416Z,10.33
2018-04-26T06:16:30.397Z,10.45
2018-04-26T06:17:30.379Z,10.59
2018-04-26T06:18:30.360Z,10.61
2018-04-26T06:19:30.350Z,10.74
2018-04-26T06:20:30.326Z,10.92
2018-04-26T06:21:30.311Z,10.96
2018-04-26T06:22:30.299Z,10.94
2018-04-26T06:23:30.274Z,11.06
2018-04-26T06:24:30.260Z,11.17
2018-04-26T06:25:30.244Z,11.10
2018-04-26T06:26:30.232Z,11.17
2018-04-26T06:27:30.210Z,11.21
2018-04-26T06:28:30.195Z,11.14
2018-04-26T06:29:30.175Z,11.25
2018-04-26T06:30:30.156Z,11.22
2018-04-26T06:31:30.139Z,11.18
2018-04-26T06:32:30.123Z,11.27
2018-04-26T06:33:30.106Z,11.27
2018-04-26T06:34:30.093Z,11.21
2018-04-26T06:35:30.072Z,11.15
2018-04-26T06:36:30.061Z,11.11
2018-04-26T06:37:30.041Z,11.07
2018-04-26T06:38:30.021Z,11.03
2018-04-26T06:39:30.005Z,10.92
2018-04-26T06:40:29.989Z,10.99
2018-04-26T06:41:29.973Z,10.91
2018-04-26T06:42:29.955Z,10.79
2018-04-26T06:43:29.939Z,10.88
2018-04-26T06:44:29.922Z,10.79
2018-04-26T06:45:29.906Z,10.76
2018-04-26T06:46:29.889Z,10.63
2018-04-26T06:47:29.873Z,10.61
2018-04-26T06:48:29.855Z,10.67
2018-04-26T06:49:29.876Z,10.60
2018-04-26T06:50:29.854Z,10.59
2018-04-26T06:51:29.804Z,10.61
2018-04-26T06:52:29.791Z,10.56
2018-04-26T06:53:29.865Z,10.47
2018-04-26T06:54:29.753Z,10.48
2018-04-26T06:55:29.739Z,10.60
2018-04-26T06:56:29.724Z,10.55
2018-04-26T06:57:29.705Z,10.56
2018-04-26T06:58:29.685Z,10.56
2018-04-26T06:59:29.671Z,10.47
2018-04-26T07:00:29.739Z,10.52
2018-04-26T07:01:29.634Z,10.59
2018-04-26T07:02:29.618Z,10.55
2018-04-26T07:03:29.599Z,10.53
2018-04-26T07:04:29.582Z,10.55
2018-04-26T07:05:29.567Z,10.56
2018-04-26T07:06:29.548Z,10.60
2018-04-26T07:07:29.535Z,10.53
2018-04-26T07:08:29.513Z,10.53
2018-04-26T07:09:29.505Z,10.45
2018-04-26T07:10:29.493Z,10.47
2018-04-26T07:11:29.462Z,10.51
2018-04-26T07:12:29.445Z,10.42
2018-04-26T07:13:29.437Z,10.56
2018-04-26T07:14:29.414Z,10.63
2018-04-26T07:15:29.395Z,10.64
2018-04-26T07:16:29.377Z,10.64
2018-04-26T07:17:29.362Z,10.59
2018-04-26T07:18:29.343Z,10.63
2018-04-26T07:19:29.324Z,10.71
2018-04-26T07:20:29.316Z,10.61
2018-04-26T07:21:29.290Z,10.63
2018-04-26T07:22:29.273Z,10.51
2018-04-26T07:23:29.256Z,10.56
2018-04-26T07:24:29.237Z,10.56
2018-04-26T07:25:29.222Z,10.45
2018-04-26T07:26:29.204Z,10.45
2018-04-26T07:27:29.186Z,10.36
2018-04-26T07:28:29.169Z,10.41
2018-04-26T07:29:29.153Z,10.30
2018-04-26T07:30:29.135Z,10.25
2018-04-26T07:31:29.118Z,10.26
2018-04-26T07:32:29.108Z,10.29
2018-04-26T07:33:29.084Z,10.15
2018-04-26T07:34:29.068Z,10.15
2018-04-26T07:35:29.050Z,10.12
2018-04-26T07:36:29.041Z,10.12
2018-04-26T07:37:29.017Z,10.01
2018-04-26T07:38:28.999Z,10.01
2018-04-26T07:39:28.977Z,9.97
2018-04-26T07:40:28.964Z,9.94
2018-04-26T07:41:28.943Z,9.87
2018-04-26T07:42:28.925Z,9.93
2018-04-26T07:43:28.907Z,9.89
2018-04-26T07:44:28.891Z,10.02
2018-04-26T07:45:28.874Z,10.08
2018-04-26T07:46:28.858Z,10.14
2018-04-26T07:47:28.836Z,10.18
2018-04-26T07:48:28.819Z,10.23
2018-04-26T07:49:28.806Z,10.25
2018-04-26T07:50:28.785Z,10.44
2018-04-26T07:51:28.773Z,10.85
2018-04-26T07:52:28.749Z,11.11
2018-04-26T07:53:28.731Z,11.79
2018-04-26T07:54:28.714Z,12.12
2018-04-26T07:55:28.697Z,12.17
2018-04-26T07:56:28.683Z,12.77
2018-04-26T07:57:28.663Z,13.20
2018-04-26T07:58:28.647Z,13.28
2018-04-26T07:59:28.631Z,12.97
2018-04-26T08:00:28.613Z,12.79
2018-04-26T08:01:28.701Z,12.62
2018-04-26T08:02:28.588Z,12.46
2018-04-26T08:03:28.568Z,12.39
2018-04-26T08:04:28.552Z,12.65
2018-04-26T08:05:28.538Z,13.22
2018-04-26T08:06:28.524Z,13.14
2018-04-26T08:07:28.507Z,13.17
2018-04-26T08:08:28.492Z,13.82
2018-04-26T08:09:28.482Z,13.88
2018-04-26T08:10:28.464Z,13.88
2018-04-26T08:11:28.450Z,13.84
2018-04-26T08:12:28.437Z,14.29
2018-04-26T08:13:28.423Z,14.35
2018-04-26T08:14:28.410Z,14.45
2018-04-26T08:15:28.397Z,14.75
2018-04-26T08:16:28.384Z,14.99
2018-04-26T08:17:28.371Z,15.31
2018-04-26T08:18:28.363Z,15.11
2018-04-26T08:19:28.397Z,14.88
2018-04-26T08:20:28.335Z,15.14
2018-04-26T08:21:28.328Z,15.69
2018-04-26T08:22:28.317Z,16.23
2018-04-26T08:23:28.301Z,16.41
2018-04-26T08:24:28.289Z,16.53
2018-04-26T08:25:28.280Z,16.49
2018-04-26T08:26:28.269Z,16.42
2018-04-26T08:27:28.258Z,16.41
2018-04-26T08:28:28.250Z,16.46
2018-04-26T08:29:28.239Z,16.64
2018-04-26T08:30:28.270Z,16.83
2018-04-26T08:31:28.231Z,16.70
2018-04-26T08:32:28.213Z,17.03
2018-04-26T08:33:28.203Z,16.96
2018-04-26T08:34:28.199Z,17.40
2018-04-26T08:35:28.184Z,17.75
2018-04-26T08:36:28.175Z,17.89
2018-04-26T08:37:28.169Z,18.21
2018-04-26T08:38:28.169Z,18.60
2018-04-26T08:39:28.156Z,18.95
2018-04-26T08:40:28.147Z,18.92
2018-04-26T08:41:28.141Z,18.90
2018-04-26T08:42:28.135Z,19.11
2018-04-26T08:43:28.128Z,19.25
2018-04-26T08:44:28.125Z,18.82
2018-04-26T08:45:28.121Z,17.89
2018-04-26T08:46:28.108Z,17.41
2018-04-26T08:47:28.102Z,16.86
2018-04-26T08:48:28.098Z,16.43
2018-04-26T08:49:28.091Z,15.96
2018-04-26T08:50:28.087Z,15.68
2018-04-26T08:51:28.080Z,15.54
2018-04-26T08:52:28.107Z,15.25
2018-04-26T08:53:28.067Z,15.10
2018-04-26T08:54:28.061Z,14.83
2018-04-26T08:55:28.052Z,14.64
2018-04-26T08:56:28.048Z,14.46
2018-04-26T08:57:28.039Z,14.47
2018-04-26T08:58:28.031Z,14.14
2018-04-26T08:59:28.023Z,13.82
2018-04-26T09:00:28.013Z,13.26
2018-04-26T09:01:28.007Z,12.71
2018-04-26T09:02:28.000Z,12.29
2018-04-26T09:03:27.988Z,11.94
2018-04-26T09:04:27.979Z,11.35
2018-04-26T09:05:27.973Z,10.64
2018-04-26T09:06:27.958Z,10.07
2018-04-26T09:07:27.948Z,9.91
2018-04-26T09:08:27.938Z,9.75
2018-04-26T09:09:27.928Z,9.65
2018-04-26T09:10:27.917Z,9.97
2018-04-26T09:11:27.901Z,9.84
2018-04-26T09:12:27.896Z,10.05
2018-04-26T09:13:27.879Z,10.17
2018-04-26T09:14:27.866Z,10.25
2018-04-26T09:15:27.848Z,10.26
2018-04-26T09:16:27.835Z,10.34
2018-04-26T09:17:27.835Z,10.22
2018-04-26T09:18:27.812Z,10.27
2018-04-26T09:19:27.796Z,10.17
2018-04-26T09:20:27.782Z,10.30
2018-04-26T09:21:27.767Z,10.22
2018-04-26T09:22:27.754Z,10.14
2018-04-26T09:23:27.748Z,9.90
2018-04-26T09:24:27.724Z,9.84
2018-04-26T09:25:27.708Z,9.68
2018-04-26T09:26:27.698Z,9.46
2018-04-26T09:27:27.684Z,9.20
2018-04-26T09:28:27.664Z,9.17
2018-04-26T09:29:27.649Z,9.05
2018-04-26T09:30:27.632Z,9.04
2018-04-26T09:31:27.616Z,9.02
2018-04-26T09:32:27.603Z,9.04
2018-04-26T09:33:27.583Z,8.94
2018-04-26T09:34:27.569Z,8.91
2018-04-26T09:35:27.553Z,8.83
2018-04-26T09:36:27.537Z,8.84
2018-04-26T09:37:27.521Z,8.84
2018-04-26T09:38:27.503Z,8.74
2018-04-26T09:39:27.486Z,8.77
2018-04-26T09:40:27.468Z,8.77
2018-04-26T09:41:27.455Z,8.76
2018-04-26T09:42:27.450Z,8.76
2018-04-26T09:43:27.417Z,8.74
2018-04-26T09:44:27.401Z,8.71
2018-04-26T09:45:27.382Z,8.86
2018-04-26T09:46:27.374Z,8.77
2018-04-26T09:47:27.352Z,8.81
2018-04-26T09:48:27.332Z,8.77
2018-04-26T09:49:27.314Z,8.79
2018-04-26T09:50:27.300Z,8.84
2018-04-26T09:51:27.281Z,8.76
2018-04-26T09:52:27.269Z,8.91
2018-04-26T09:53:27.244Z,8.92
2018-04-26T09:54:27.231Z,8.99
2018-04-26T09:55:27.266Z,9.14
2018-04-26T09:56:27.192Z,9.21
2018-04-26T09:57:27.176Z,9.31
2018-04-26T09:58:27.160Z,9.50
2018-04-26T09:59:27.138Z,9.71
2018-04-26T10:00:27.126Z,9.83
2018-04-26T10:01:27.103Z,10.12
2018-04-26T10:02:27.086Z,10.40
2018-04-26T10:03:27.074Z,10.64
2018-04-26T10:04:27.053Z,10.76
2018-04-26T10:05:27.035Z,11.04
2018-04-26T10:06:27.021Z,10.91
2018-04-26T10:07:27.001Z,10.91
2018-04-26T10:08:27.039Z,11.04
2018-04-26T10:09:26.971Z,11.18
2018-04-26T10:10:26.954Z,11.46
2018-04-26T10:11:26.938Z,11.70
2018-04-26T10:12:26.920Z,11.95
2018-04-26T10:13:26.911Z,11.95
2018-04-26T10:14:26.894Z,11.80
2018-04-26T10:15:26.875Z,11.96
2018-04-26T10:16:26.862Z,11.88
2018-04-26T10:17:26.853Z,11.79
2018-04-26T10:18:26.830Z,11.78
2018-04-26T10:19:26.817Z,11.69
2018-04-26T10:20:26.806Z,11.49
2018-04-26T10:21:26.792Z,11.46
2018-04-26T10:22:26.779Z,11.60
2018-04-26T10:23:26.758Z,11.79
2018-04-26T10:24:26.746Z,12.50
2018-04-26T10:25:26.732Z,13.29
2018-04-26T10:26:26.718Z,14.28
2018-04-26T10:27:26.700Z,14.81
2018-04-26T10:28:26.691Z,15.51
2018-04-26T10:29:26.678Z,15.86
2018-04-26T10:30:26.667Z,16.21
2018-04-26T10:31:26.654Z,16.34
2018-04-26T10:32:26.663Z,16.38
2018-04-26T10:33:26.639Z,16.49
2018-04-26T10:34:26.627Z,16.76
2018-04-26T10:35:26.650Z,16.85
2018-04-26T10:36:26.605Z,16.60
2018-04-26T10:37:26.597Z,16.68
2018-04-26T10:38:26.589Z,16.25
2018-04-26T10:39:26.579Z,15.64
2018-04-26T10:40:26.572Z,14.94
2018-04-26T10:41:26.562Z,15.16
2018-04-26T10:42:26.560Z,15.01
2018-04-26T10:43:26.561Z,14.69
2018-04-26T10:44:26.635Z,14.96
2018-04-26T10:45:26.538Z,14.86
2018-04-26T10:46:26.527Z,15.34
2018-04-26T10:47:26.522Z,15.87
2018-04-26T10:48:26.513Z,16.23
2018-04-26T10:49:26.512Z,16.67
2018-04-26T10:50:26.499Z,16.85
2018-04-26T10:51:26.497Z,17.23
2018-04-26T10:52:26.491Z,17.38
2018-04-26T10:53:26.482Z,17.54
2018-04-26T10:54:26.476Z,16.75
2018-04-26T10:55:26.478Z,16.21
2018-04-26T10:56:26.467Z,15.90
2018-04-26T10:57:26.462Z,15.76
2018-04-26T10:58:26.459Z,16.07
2018-04-26T10:59:26.452Z,15.92
2018-04-26T11:00:26.448Z,15.44
2018-04-26T11:01:26.443Z,14.94
2018-04-26T11:02:26.492Z,14.70
2018-04-26T11:03:26.434Z,14.39
2018-04-26T11:04:26.426Z,14.09
2018-04-26T11:05:26.425Z,13.97
2018-04-26T11:06:26.418Z,13.73
2018-04-26T11:07:26.406Z,13.45
2018-04-26T11:08:26.400Z,13.19
2018-04-26T11:09:26.393Z,12.92
2018-04-26T11:10:26.392Z,12.89
2018-04-26T11:11:26.423Z,12.79
2018-04-26T11:12:26.372Z,12.83
2018-04-26T11:13:26.363Z,12.83
2018-04-26T11:14:26.356Z,12.75
2018-04-26T11:15:26.423Z,12.86
2018-04-26T11:16:26.339Z,12.71
2018-04-26T11:17:26.328Z,12.68
2018-04-26T11:18:26.321Z,12.62
2018-04-26T11:19:26.309Z,12.71
2018-04-26T11:20:26.299Z,12.59
2018-04-26T11:21:26.332Z,12.45
2018-04-26T11:22:26.279Z,12.38
2018-04-26T11:23:26.270Z,12.70
2018-04-26T11:24:26.282Z,13.69
2018-04-26T11:25:26.250Z,14.35
2018-04-26T11:26:26.242Z,15.34
2018-04-26T11:27:26.229Z,15.96
2018-04-26T11:28:26.221Z,16.43
2018-04-26T11:29:26.238Z,16.76
2018-04-26T11:30:26.207Z,16.96
2018-04-26T11:31:26.194Z,16.88
2018-04-26T11:32:26.187Z,16.45
2018-04-26T11:33:26.185Z,15.93
2018-04-26T11:34:26.181Z,16.05
2018-04-26T11:35:26.166Z,16.78
2018-04-26T11:36:26.158Z,17.06
2018-04-26T11:37:26.152Z,17.62
2018-04-26T11:38:26.176Z,17.90
2018-04-26T11:39:26.140Z,18.23
2018-04-26T11:40:26.136Z,17.72
2018-04-26T11:41:26.138Z,17.22
2018-04-26T11:42:26.124Z,16.68
2018-04-26T11:43:26.119Z,16.38
2018-04-26T11:44:26.114Z,15.80
2018-04-26T11:45:26.108Z,15.46
2018-04-26T11:46:26.101Z,15.44
2018-04-26T11:47:26.098Z,16.27
2018-04-26T11:48:26.090Z,17.00
2018-04-26T11:49:26.086Z,17.74
2018-04-26T11:50:26.101Z,18.30
2018-04-26T11:51:26.074Z,18.15
2018-04-26T11:52:26.155Z,17.84
2018-04-26T11:53:26.066Z,17.48
2018-04-26T11:54:38.798Z,16.82
2018-04-26T11:55:26.056Z,16.41
2018-04-26T11:56:26.095Z,16.07
2018-04-26T11:57:32.315Z,15.72
2018-04-26T11:58:26.040Z,15.53
2018-04-26T11:59:26.032Z,15.28
2018-04-26T12:00:26.025Z,15.03
2018-04-26T12:01:26.024Z,14.83
2018-04-26T12:02:26.073Z,14.73
2018-04-26T12:03:26.006Z,14.73
2018-04-26T12:04:25.999Z,14.78
2018-04-26T12:05:25.991Z,14.68
2018-04-26T12:06:25.986Z,15.25
2018-04-26T12:07:25.991Z,15.67
2018-04-26T12:08:25.972Z,15.92
2018-04-26T12:09:25.960Z,16.39
2018-04-26T12:10:25.956Z,17.11
2018-04-26T12:11:25.951Z,17.68
2018-04-26T12:12:25.939Z,18.33
2018-04-26T12:13:25.939Z,18.90
2018-04-26T12:14:25.965Z,19.18
2018-04-26T12:15:25.922Z,19.36
2018-04-26T12:16:25.917Z,19.83
2018-04-26T12:17:25.911Z,19.74
2018-04-26T12:18:25.922Z,19.37
2018-04-26T12:19:25.905Z,19.00
2018-04-26T12:20:25.896Z,18.95
2018-04-26T12:21:25.892Z,18.54
2018-04-26T12:22:25.886Z,18.07
2018-04-26T12:23:25.883Z,17.55
2018-04-26T12:24:25.878Z,17.63
2018-04-26T12:25:25.876Z,18.05
2018-04-26T12:26:25.874Z,17.68
2018-04-26T12:27:25.867Z,17.19
2018-04-26T12:28:25.859Z,16.66
2018-04-26T12:29:25.975Z,16.50
2018-04-26T12:30:25.849Z,16.25
2018-04-26T12:31:25.842Z,15.83
2018-04-26T12:32:25.835Z,15.54
2018-04-26T12:33:25.834Z,15.43
2018-04-26T12:34:25.826Z,15.39
2018-04-26T12:35:25.820Z,15.31
2018-04-26T12:36:25.811Z,15.21
2018-04-26T12:37:25.805Z,15.09
2018-04-26T12:38:25.802Z,15.03
2018-04-26T12:39:25.791Z,15.36
2018-04-26T12:40:25.782Z,15.25
2018-04-26T12:41:25.781Z,15.90
2018-04-26T12:42:25.848Z,16.53
2018-04-26T12:43:25.757Z,17.11
2018-04-26T12:44:25.750Z,17.86
2018-04-26T12:45:25.743Z,17.84
2018-04-26T12:46:25.738Z,17.78
2018-04-26T12:47:25.728Z,17.72
2018-04-26T12:48:25.719Z,17.44
2018-04-26T12:49:25.721Z,17.25
2018-04-26T12:50:25.714Z,17.01
2018-04-26T12:51:25.699Z,16.79
2018-04-26T12:52:25.693Z,16.50
2018-04-26T12:53:25.683Z,16.45
2018-04-26T12:54:25.676Z,16.25
2018-04-26T12:55:25.674Z,16.42
2018-04-26T12:56:25.659Z,17.12
2018-04-26T12:57:25.659Z,17.31
2018-04-26T12:58:25.640Z,17.52
2018-04-26T12:59:25.631Z,17.62
2018-04-26T13:00:25.625Z,17.99
2018-04-26T13:01:25.622Z,19.00
2018-04-26T13:02:25.615Z,19.06
2018-04-26T13:03:25.600Z,18.84
2018-04-26T13:04:25.634Z,18.50
2018-04-26T13:05:25.581Z,18.33
2018-04-26T13:06:25.583Z,18.00